ASX221 LROP-LOWW
Flight info
| Callsign | ASX221 |
|---|---|
| Flight time | 1h 26m |
| Altitude | 36000 |
| Route | SOKRU DCT OXDOC DCT IBINU DCT BALUX DCT TORNO DCT NATEX NATEX2W |
| Aircraft | A21N/M-SDE3FGHIRWY/LB1 |
Departure
| Time | 2026-04-21 19:21 |
|---|---|
| Airport | Bucharest Henri Coandă International Airport (LROP) |
Arrival
| Time | 2026-04-21 20:47 |
|---|---|
| Airport | Vienna International Airport (LOWW) |
| Time | Latitude | Longitude | Altitude | Speed | Heading |
|---|---|---|---|---|---|
| 2026-04-21 18:42 | 44.57020 | 26.08131 | 320 ft | 0 kts | 355° |
| 2026-04-21 19:10 | 44.57017 | 26.08131 | 320 ft | 2 kts | 355° |
| 2026-04-21 19:10 | 44.57002 | 26.08133 | 320 ft | 2 kts | 354° |
| 2026-04-21 19:10 | 44.56987 | 26.08134 | 320 ft | 2 kts | 355° |
| 2026-04-21 19:10 | 44.56972 | 26.08137 | 320 ft | 2 kts | 2° |
| 2026-04-21 19:11 | 44.56958 | 26.08131 | 320 ft | 2 kts | 28° |
| 2026-04-21 19:11 | 44.56945 | 26.08118 | 320 ft | 2 kts | 51° |
| 2026-04-21 19:11 | 44.56938 | 26.08099 | 320 ft | 2 kts | 73° |
| 2026-04-21 19:11 | 44.56936 | 26.08088 | 320 ft | 1 kts | 86° |
| 2026-04-21 19:12 | 44.56936 | 26.08081 | 320 ft | 0 kts | 84° |
| 2026-04-21 19:14 | 44.56936 | 26.08084 | 320 ft | 0 kts | 84° |
| 2026-04-21 19:14 | 44.56937 | 26.08104 | 320 ft | 3 kts | 84° |
| 2026-04-21 19:14 | 44.56940 | 26.08137 | 320 ft | 3 kts | 83° |
| 2026-04-21 19:15 | 44.56943 | 26.08176 | 320 ft | 4 kts | 83° |
| 2026-04-21 19:15 | 44.56947 | 26.08215 | 320 ft | 3 kts | 83° |
| 2026-04-21 19:15 | 44.56949 | 26.08251 | 320 ft | 3 kts | 84° |
| 2026-04-21 19:15 | 44.56952 | 26.08307 | 320 ft | 7 kts | 89° |
| 2026-04-21 19:16 | 44.56934 | 26.08376 | 320 ft | 7 kts | 135° |
| 2026-04-21 19:16 | 44.56903 | 26.08431 | 320 ft | 6 kts | 111° |
| 2026-04-21 19:16 | 44.56901 | 26.08495 | 321 ft | 6 kts | 74° |
| 2026-04-21 19:16 | 44.56945 | 26.08538 | 320 ft | 10 kts | 4° |
| 2026-04-21 19:17 | 44.57088 | 26.08522 | 320 ft | 9 kts | 354° |
| 2026-04-21 19:17 | 44.57152 | 26.08513 | 320 ft | 9 kts | 352° |
| 2026-04-21 19:17 | 44.57221 | 26.08502 | 320 ft | 11 kts | 352° |
| 2026-04-21 19:18 | 44.57311 | 26.08488 | 321 ft | 14 kts | 354° |
| 2026-04-21 19:18 | 44.57407 | 26.08476 | 320 ft | 9 kts | 355° |
| 2026-04-21 19:18 | 44.57480 | 26.08466 | 320 ft | 10 kts | 353° |
| 2026-04-21 19:18 | 44.57552 | 26.08453 | 320 ft | 10 kts | 354° |
| 2026-04-21 19:19 | 44.57624 | 26.08443 | 320 ft | 3 kts | 354° |
| 2026-04-21 19:19 | 44.57651 | 26.08448 | 320 ft | 4 kts | 40° |
| 2026-04-21 19:19 | 44.57668 | 26.08500 | 320 ft | 6 kts | 77° |
| 2026-04-21 19:19 | 44.57669 | 26.08507 | 320 ft | 0 kts | 79° |
| 2026-04-21 19:20 | 44.57670 | 26.08519 | 320 ft | 11 kts | 79° |
| 2026-04-21 19:20 | 44.57709 | 26.09004 | 321 ft | 85 kts | 85° |
| 2026-04-21 19:20 | 44.57794 | 26.10142 | 321 ft | 145 kts | 83° |
| 2026-04-21 19:20 | 44.57909 | 26.11718 | 580 ft | 170 kts | 84° |
| 2026-04-21 19:21 | 44.58009 | 26.13291 | 1334 ft | 163 kts | 84° |
| 2026-04-21 19:21 | 44.58127 | 26.14836 | 2055 ft | 160 kts | 80° |
| 2026-04-21 19:21 | 44.58282 | 26.16383 | 2489 ft | 167 kts | 83° |
| 2026-04-21 19:21 | 44.58415 | 26.18046 | 2862 ft | 177 kts | 83° |
| 2026-04-21 19:22 | 44.58599 | 26.19798 | 3269 ft | 188 kts | 79° |
| 2026-04-21 19:22 | 44.59142 | 26.21543 | 3580 ft | 206 kts | 50° |
| 2026-04-21 19:22 | 44.60396 | 26.22628 | 3847 ft | 229 kts | 16° |
| 2026-04-21 19:22 | 44.62055 | 26.22500 | 4152 ft | 253 kts | 339° |
| 2026-04-21 19:23 | 44.63453 | 26.20930 | 4621 ft | 269 kts | 308° |
| 2026-04-21 19:23 | 44.64566 | 26.18854 | 5402 ft | 270 kts | 315° |
| 2026-04-21 19:23 | 44.66167 | 26.17556 | 6175 ft | 268 kts | 349° |
| 2026-04-21 19:23 | 44.67996 | 26.17399 | 7006 ft | 267 kts | 0° |
| 2026-04-21 19:24 | 44.69688 | 26.17398 | 7707 ft | 269 kts | 359° |
| 2026-04-21 19:24 | 44.71312 | 26.17324 | 8397 ft | 271 kts | 356° |
| 2026-04-21 19:24 | 44.73183 | 26.17150 | 9193 ft | 272 kts | 355° |
| 2026-04-21 19:24 | 44.75052 | 26.16890 | 9966 ft | 273 kts | 349° |
| 2026-04-21 19:25 | 44.76796 | 26.15872 | 10590 ft | 278 kts | 323° |
| 2026-04-21 19:25 | 44.78090 | 26.13787 | 11117 ft | 288 kts | 302° |
| 2026-04-21 19:25 | 44.79122 | 26.11367 | 11768 ft | 292 kts | 302° |
| 2026-04-21 19:25 | 44.80169 | 26.08937 | 12437 ft | 294 kts | 302° |
| 2026-04-21 19:26 | 44.81231 | 26.06500 | 13116 ft | 296 kts | 302° |
| 2026-04-21 19:26 | 44.82314 | 26.04029 | 13751 ft | 299 kts | 302° |
| 2026-04-21 19:26 | 44.83418 | 26.01514 | 14387 ft | 302 kts | 302° |
| 2026-04-21 19:26 | 44.84519 | 25.99008 | 15049 ft | 303 kts | 302° |
| 2026-04-21 19:27 | 44.85606 | 25.96494 | 15658 ft | 305 kts | 299° |
| 2026-04-21 19:27 | 44.86548 | 25.93780 | 16249 ft | 307 kts | 293° |
| 2026-04-21 19:27 | 44.87257 | 25.90970 | 16845 ft | 309 kts | 287° |
| 2026-04-21 19:27 | 44.87875 | 25.88086 | 17467 ft | 309 kts | 287° |
| 2026-04-21 19:28 | 44.88488 | 25.85157 | 18064 ft | 311 kts | 286° |
| 2026-04-21 19:28 | 44.89092 | 25.82255 | 18644 ft | 312 kts | 286° |
| 2026-04-21 19:28 | 44.89700 | 25.79343 | 19178 ft | 313 kts | 286° |
| 2026-04-21 19:28 | 44.90312 | 25.76409 | 19749 ft | 313 kts | 286° |
| 2026-04-21 19:29 | 44.90931 | 25.73443 | 20326 ft | 313 kts | 286° |
| 2026-04-21 19:29 | 44.91532 | 25.70562 | 20957 ft | 310 kts | 285° |
| 2026-04-21 19:29 | 44.92142 | 25.67640 | 21539 ft | 308 kts | 285° |
| 2026-04-21 19:29 | 44.92736 | 25.64788 | 22089 ft | 307 kts | 286° |
| 2026-04-21 19:30 | 44.93586 | 25.62022 | 22621 ft | 307 kts | 296° |
| 2026-04-21 19:30 | 44.94678 | 25.59453 | 23163 ft | 306 kts | 298° |
| 2026-04-21 19:30 | 44.95792 | 25.56893 | 23701 ft | 304 kts | 297° |
| 2026-04-21 19:30 | 44.96876 | 25.54371 | 24196 ft | 303 kts | 297° |
| 2026-04-21 19:31 | 44.97962 | 25.51815 | 24674 ft | 302 kts | 297° |
| 2026-04-21 19:31 | 44.99024 | 25.49293 | 25043 ft | 304 kts | 297° |
| 2026-04-21 19:31 | 45.00103 | 25.46711 | 25417 ft | 306 kts | 296° |
| 2026-04-21 19:31 | 45.01188 | 25.44103 | 25785 ft | 308 kts | 297° |
| 2026-04-21 19:32 | 45.02275 | 25.41489 | 26123 ft | 310 kts | 297° |
| 2026-04-21 19:32 | 45.03373 | 25.38842 | 26468 ft | 312 kts | 296° |
| 2026-04-21 19:32 | 45.04483 | 25.36157 | 26799 ft | 315 kts | 296° |
| 2026-04-21 19:32 | 45.05590 | 25.33468 | 27126 ft | 317 kts | 296° |
| 2026-04-21 19:33 | 45.06326 | 25.31674 | 27312 ft | 320 kts | 296° |
| 2026-04-21 19:33 | 45.07816 | 25.28060 | 27759 ft | 322 kts | 296° |
| 2026-04-21 19:33 | 45.08954 | 25.25286 | 28096 ft | 324 kts | 296° |
| 2026-04-21 19:33 | 45.10088 | 25.22524 | 28396 ft | 327 kts | 296° |
| 2026-04-21 19:34 | 45.11240 | 25.19715 | 28691 ft | 330 kts | 296° |
| 2026-04-21 19:34 | 45.12396 | 25.16895 | 29010 ft | 332 kts | 297° |
| 2026-04-21 19:34 | 45.13562 | 25.14046 | 29299 ft | 335 kts | 296° |
| 2026-04-21 19:34 | 45.14718 | 25.11221 | 29612 ft | 336 kts | 296° |
| 2026-04-21 19:35 | 45.15895 | 25.08330 | 29907 ft | 339 kts | 297° |
| 2026-04-21 19:35 | 45.18264 | 25.02517 | 30430 ft | 344 kts | 297° |
| 2026-04-21 19:35 | 45.19468 | 24.99560 | 30689 ft | 347 kts | 297° |
| 2026-04-21 19:36 | 45.20665 | 24.96618 | 30958 ft | 348 kts | 296° |
| 2026-04-21 19:36 | 45.21885 | 24.93615 | 31214 ft | 350 kts | 297° |
| 2026-04-21 19:36 | 45.23101 | 24.90616 | 31427 ft | 353 kts | 296° |
| 2026-04-21 19:36 | 45.24311 | 24.87627 | 31642 ft | 355 kts | 297° |
| 2026-04-21 19:37 | 45.25548 | 24.84565 | 31817 ft | 359 kts | 297° |
| 2026-04-21 19:37 | 45.26780 | 24.81521 | 32001 ft | 361 kts | 297° |
| 2026-04-21 19:37 | 45.28040 | 24.78402 | 32204 ft | 362 kts | 297° |
| 2026-04-21 19:37 | 45.29295 | 24.75293 | 32369 ft | 365 kts | 297° |
| 2026-04-21 19:38 | 45.30551 | 24.72173 | 32499 ft | 368 kts | 297° |
| 2026-04-21 19:38 | 45.31823 | 24.69013 | 32664 ft | 371 kts | 297° |
| 2026-04-21 19:38 | 45.32668 | 24.66916 | 32787 ft | 372 kts | 297° |
| 2026-04-21 19:38 | 45.34393 | 24.62622 | 33037 ft | 374 kts | 297° |
| 2026-04-21 19:39 | 45.35687 | 24.59394 | 33180 ft | 376 kts | 297° |
| 2026-04-21 19:39 | 45.36979 | 24.56168 | 33315 ft | 379 kts | 297° |
| 2026-04-21 19:39 | 45.38282 | 24.52912 | 33472 ft | 381 kts | 297° |
| 2026-04-21 19:39 | 45.39600 | 24.49616 | 33643 ft | 382 kts | 297° |
| 2026-04-21 19:40 | 45.40905 | 24.46348 | 33804 ft | 384 kts | 297° |
| 2026-04-21 19:40 | 45.42238 | 24.43010 | 33982 ft | 385 kts | 297° |
| 2026-04-21 19:40 | 45.43555 | 24.39701 | 34133 ft | 386 kts | 297° |
| 2026-04-21 19:40 | 45.44880 | 24.36368 | 34252 ft | 389 kts | 297° |
| 2026-04-21 19:41 | 45.46225 | 24.32982 | 34393 ft | 392 kts | 297° |
| 2026-04-21 19:41 | 45.47555 | 24.29626 | 34566 ft | 393 kts | 297° |
| 2026-04-21 19:41 | 45.48912 | 24.26201 | 34744 ft | 395 kts | 297° |
| 2026-04-21 19:41 | 45.50249 | 24.22824 | 34914 ft | 396 kts | 297° |
| 2026-04-21 19:42 | 45.51595 | 24.19421 | 35093 ft | 397 kts | 297° |
| 2026-04-21 19:42 | 45.52967 | 24.15945 | 35237 ft | 399 kts | 297° |
| 2026-04-21 19:42 | 45.54327 | 24.12498 | 35366 ft | 401 kts | 297° |
| 2026-04-21 19:42 | 45.55692 | 24.09035 | 35489 ft | 403 kts | 297° |
| 2026-04-21 19:43 | 45.57048 | 24.05589 | 35604 ft | 405 kts | 298° |
| 2026-04-21 19:43 | 45.58428 | 24.02076 | 35750 ft | 406 kts | 298° |
| 2026-04-21 19:43 | 45.59804 | 23.98574 | 35919 ft | 407 kts | 297° |
| 2026-04-21 19:44 | 45.62577 | 23.91495 | 35946 ft | 409 kts | 298° |
| 2026-04-21 19:44 | 45.65333 | 23.84442 | 35949 ft | 409 kts | 298° |
| 2026-04-21 19:45 | 45.68097 | 23.77345 | 35934 ft | 410 kts | 298° |
| 2026-04-21 19:45 | 45.70871 | 23.70214 | 35954 ft | 410 kts | 298° |
| 2026-04-21 19:46 | 45.73627 | 23.63100 | 35941 ft | 411 kts | 298° |
| 2026-04-21 19:46 | 45.76376 | 23.55994 | 35938 ft | 411 kts | 298° |
| 2026-04-21 19:47 | 45.79140 | 23.48831 | 35941 ft | 411 kts | 298° |
| 2026-04-21 19:47 | 45.81897 | 23.41657 | 35955 ft | 411 kts | 298° |
| 2026-04-21 19:48 | 45.84642 | 23.34498 | 35965 ft | 411 kts | 297° |
| 2026-04-21 19:48 | 45.87393 | 23.27308 | 35979 ft | 412 kts | 297° |
| 2026-04-21 19:49 | 45.90136 | 23.20124 | 35979 ft | 412 kts | 297° |
| 2026-04-21 19:49 | 45.92888 | 23.12895 | 35983 ft | 413 kts | 297° |
| 2026-04-21 19:50 | 45.95179 | 23.06859 | 35987 ft | 413 kts | 297° |
| 2026-04-21 19:50 | 45.98373 | 22.98426 | 35981 ft | 413 kts | 297° |
| 2026-04-21 19:51 | 46.01093 | 22.91220 | 35984 ft | 413 kts | 297° |
| 2026-04-21 19:51 | 46.03824 | 22.83971 | 35981 ft | 413 kts | 297° |
| 2026-04-21 19:52 | 46.06543 | 22.76730 | 35989 ft | 414 kts | 297° |
| 2026-04-21 19:52 | 46.09287 | 22.69405 | 35987 ft | 414 kts | 297° |
| 2026-04-21 19:53 | 46.12008 | 22.62121 | 35991 ft | 414 kts | 297° |
| 2026-04-21 19:53 | 46.14733 | 22.54807 | 35988 ft | 414 kts | 297° |
| 2026-04-21 19:54 | 46.17460 | 22.47471 | 35986 ft | 415 kts | 297° |
| 2026-04-21 19:54 | 46.20181 | 22.40127 | 35989 ft | 415 kts | 297° |
| 2026-04-21 19:55 | 46.22877 | 22.32825 | 35995 ft | 415 kts | 297° |
| 2026-04-21 19:55 | 46.25581 | 22.25491 | 35998 ft | 415 kts | 297° |
| 2026-04-21 19:56 | 46.28280 | 22.18151 | 36002 ft | 415 kts | 297° |
| 2026-04-21 19:56 | 46.30989 | 22.10759 | 36001 ft | 416 kts | 297° |
| 2026-04-21 19:57 | 46.33672 | 22.03419 | 36006 ft | 416 kts | 297° |
| 2026-04-21 19:57 | 46.36374 | 21.96009 | 36007 ft | 416 kts | 297° |
| 2026-04-21 19:58 | 46.39060 | 21.88618 | 36015 ft | 416 kts | 297° |
| 2026-04-21 19:58 | 46.41743 | 21.81215 | 36018 ft | 417 kts | 297° |
| 2026-04-21 19:59 | 46.44421 | 21.73805 | 36026 ft | 417 kts | 297° |
| 2026-04-21 19:59 | 46.47113 | 21.66340 | 36031 ft | 417 kts | 297° |
| 2026-04-21 20:00 | 46.49783 | 21.58915 | 36034 ft | 418 kts | 297° |
| 2026-04-21 20:00 | 46.52458 | 21.51454 | 36037 ft | 418 kts | 297° |
| 2026-04-21 20:01 | 46.55110 | 21.44036 | 36037 ft | 417 kts | 297° |
| 2026-04-21 20:01 | 46.57786 | 21.36530 | 36039 ft | 418 kts | 297° |
| 2026-04-21 20:02 | 46.60446 | 21.29044 | 36044 ft | 418 kts | 296° |
| 2026-04-21 20:02 | 46.63106 | 21.21544 | 36047 ft | 419 kts | 297° |
| 2026-04-21 20:03 | 46.65762 | 21.14032 | 36046 ft | 418 kts | 297° |
| 2026-04-21 20:03 | 46.68417 | 21.06499 | 36047 ft | 419 kts | 297° |
| 2026-04-21 20:04 | 46.71065 | 20.98967 | 36047 ft | 420 kts | 297° |
| 2026-04-21 20:04 | 46.73719 | 20.91393 | 36044 ft | 421 kts | 297° |
| 2026-04-21 20:05 | 46.76369 | 20.83813 | 36047 ft | 421 kts | 297° |
| 2026-04-21 20:05 | 46.79022 | 20.76201 | 36049 ft | 421 kts | 297° |
| 2026-04-21 20:06 | 46.81663 | 20.68597 | 36052 ft | 421 kts | 297° |
| 2026-04-21 20:06 | 46.84291 | 20.61015 | 36054 ft | 422 kts | 297° |
| 2026-04-21 20:07 | 46.86927 | 20.53386 | 36056 ft | 422 kts | 297° |
| 2026-04-21 20:07 | 46.89570 | 20.45715 | 36059 ft | 422 kts | 297° |
| 2026-04-21 20:08 | 46.92189 | 20.38089 | 36060 ft | 422 kts | 297° |
| 2026-04-21 20:08 | 46.94822 | 20.30398 | 36063 ft | 423 kts | 296° |
| 2026-04-21 20:09 | 46.97434 | 20.22749 | 36068 ft | 423 kts | 296° |
| 2026-04-21 20:09 | 47.00055 | 20.15050 | 36072 ft | 424 kts | 296° |
| 2026-04-21 20:10 | 47.02693 | 20.07279 | 36075 ft | 425 kts | 296° |
| 2026-04-21 20:10 | 47.05308 | 19.99556 | 36076 ft | 425 kts | 296° |
| 2026-04-21 20:11 | 47.07915 | 19.91832 | 36079 ft | 425 kts | 296° |
| 2026-04-21 20:11 | 47.10535 | 19.84043 | 36080 ft | 425 kts | 296° |
| 2026-04-21 20:12 | 47.13128 | 19.76311 | 36079 ft | 425 kts | 296° |
| 2026-04-21 20:12 | 47.15734 | 19.68518 | 36078 ft | 425 kts | 296° |
| 2026-04-21 20:13 | 47.18325 | 19.60749 | 36078 ft | 425 kts | 296° |
| 2026-04-21 20:13 | 47.20918 | 19.52949 | 36077 ft | 425 kts | 296° |
| 2026-04-21 20:14 | 47.23502 | 19.45150 | 36079 ft | 426 kts | 296° |
| 2026-04-21 20:14 | 47.26081 | 19.37343 | 36082 ft | 426 kts | 296° |
| 2026-04-21 20:15 | 47.28677 | 19.29458 | 36084 ft | 427 kts | 296° |
| 2026-04-21 20:15 | 47.31244 | 19.21637 | 35824 ft | 427 kts | 296° |
| 2026-04-21 20:15 | 47.32542 | 19.17672 | 35459 ft | 424 kts | 296° |
| 2026-04-21 20:16 | 47.33806 | 19.13808 | 34984 ft | 423 kts | 296° |
| 2026-04-21 20:16 | 47.35054 | 19.09928 | 34403 ft | 424 kts | 295° |
| 2026-04-21 20:16 | 47.36284 | 19.06019 | 33908 ft | 422 kts | 295° |
| 2026-04-21 20:16 | 47.37519 | 19.02075 | 33520 ft | 419 kts | 295° |
| 2026-04-21 20:17 | 47.38732 | 18.98194 | 33121 ft | 418 kts | 295° |
| 2026-04-21 20:17 | 47.39936 | 18.94341 | 32647 ft | 418 kts | 295° |
| 2026-04-21 20:17 | 47.41146 | 18.90461 | 32180 ft | 418 kts | 295° |
| 2026-04-21 20:17 | 47.42365 | 18.86552 | 31664 ft | 418 kts | 295° |
| 2026-04-21 20:18 | 47.43164 | 18.83983 | 31349 ft | 417 kts | 295° |
| 2026-04-21 20:18 | 47.44759 | 18.78853 | 30725 ft | 413 kts | 295° |
| 2026-04-21 20:18 | 47.45945 | 18.75034 | 30161 ft | 411 kts | 295° |
| 2026-04-21 20:18 | 47.47140 | 18.71176 | 29559 ft | 409 kts | 295° |
| 2026-04-21 20:19 | 47.48310 | 18.67396 | 29035 ft | 405 kts | 295° |
| 2026-04-21 20:19 | 47.49454 | 18.63694 | 28541 ft | 400 kts | 295° |
| 2026-04-21 20:19 | 47.50607 | 18.59953 | 28048 ft | 396 kts | 295° |
| 2026-04-21 20:19 | 47.51737 | 18.56283 | 27571 ft | 391 kts | 295° |
| 2026-04-21 20:20 | 47.52849 | 18.52668 | 27113 ft | 387 kts | 295° |
| 2026-04-21 20:20 | 47.53885 | 18.49046 | 26644 ft | 383 kts | 292° |
| 2026-04-21 20:20 | 47.54760 | 18.45341 | 26174 ft | 379 kts | 289° |
| 2026-04-21 20:20 | 47.55561 | 18.41633 | 25693 ft | 376 kts | 289° |
| 2026-04-21 20:21 | 47.56343 | 18.37965 | 25218 ft | 373 kts | 289° |
| 2026-04-21 20:21 | 47.57107 | 18.34368 | 24757 ft | 370 kts | 288° |
| 2026-04-21 20:21 | 47.57872 | 18.30764 | 24305 ft | 366 kts | 288° |
| 2026-04-21 20:21 | 47.58631 | 18.27183 | 23859 ft | 363 kts | 288° |
| 2026-04-21 20:22 | 47.59380 | 18.23646 | 23426 ft | 359 kts | 288° |
| 2026-04-21 20:22 | 47.60851 | 18.16684 | 22545 ft | 353 kts | 288° |
| 2026-04-21 20:22 | 47.61583 | 18.13213 | 22112 ft | 350 kts | 288° |
| 2026-04-21 20:23 | 47.62301 | 18.09804 | 21683 ft | 347 kts | 288° |
| 2026-04-21 20:23 | 47.63009 | 18.06434 | 21257 ft | 345 kts | 289° |
| 2026-04-21 20:23 | 47.63714 | 18.03078 | 20839 ft | 342 kts | 289° |
| 2026-04-21 20:23 | 47.64421 | 17.99701 | 20404 ft | 340 kts | 289° |
| 2026-04-21 20:24 | 47.65111 | 17.96398 | 19976 ft | 337 kts | 289° |
| 2026-04-21 20:24 | 47.65804 | 17.93081 | 19562 ft | 334 kts | 289° |
| 2026-04-21 20:24 | 47.66482 | 17.89828 | 19139 ft | 332 kts | 289° |
| 2026-04-21 20:24 | 47.67157 | 17.86586 | 18722 ft | 330 kts | 289° |
| 2026-04-21 20:25 | 47.67833 | 17.83333 | 18305 ft | 328 kts | 289° |
| 2026-04-21 20:25 | 47.68498 | 17.80136 | 17906 ft | 326 kts | 289° |
| 2026-04-21 20:25 | 47.69156 | 17.76961 | 17504 ft | 323 kts | 289° |
| 2026-04-21 20:25 | 47.69816 | 17.73772 | 17095 ft | 321 kts | 289° |
| 2026-04-21 20:26 | 47.70470 | 17.70605 | 16688 ft | 319 kts | 289° |
| 2026-04-21 20:26 | 47.71108 | 17.67508 | 16295 ft | 317 kts | 289° |
| 2026-04-21 20:26 | 47.71753 | 17.64373 | 15901 ft | 315 kts | 289° |
| 2026-04-21 20:26 | 47.72382 | 17.61307 | 15512 ft | 313 kts | 289° |
| 2026-04-21 20:27 | 47.73015 | 17.58223 | 15119 ft | 311 kts | 289° |
| 2026-04-21 20:27 | 47.73641 | 17.55165 | 14733 ft | 309 kts | 289° |
| 2026-04-21 20:27 | 47.74239 | 17.52122 | 14343 ft | 308 kts | 285° |
| 2026-04-21 20:27 | 47.74525 | 17.48984 | 13995 ft | 308 kts | 274° |
| 2026-04-21 20:28 | 47.74434 | 17.45838 | 13773 ft | 309 kts | 267° |
| 2026-04-21 20:28 | 47.74215 | 17.42655 | 13560 ft | 309 kts | 266° |
| 2026-04-21 20:28 | 47.73980 | 17.39506 | 13357 ft | 309 kts | 266° |
| 2026-04-21 20:28 | 47.73745 | 17.36338 | 13154 ft | 308 kts | 266° |
| 2026-04-21 20:29 | 47.73514 | 17.33196 | 12947 ft | 307 kts | 265° |
| 2026-04-21 20:29 | 47.73286 | 17.30042 | 12740 ft | 306 kts | 265° |
| 2026-04-21 20:29 | 47.73060 | 17.26915 | 12538 ft | 306 kts | 266° |
| 2026-04-21 20:29 | 47.72833 | 17.23767 | 12333 ft | 305 kts | 266° |
| 2026-04-21 20:30 | 47.72608 | 17.20657 | 12128 ft | 304 kts | 266° |
| 2026-04-21 20:30 | 47.72384 | 17.17565 | 11926 ft | 303 kts | 266° |
| 2026-04-21 20:30 | 47.72158 | 17.14471 | 11724 ft | 302 kts | 266° |
| 2026-04-21 20:30 | 47.71932 | 17.11379 | 11518 ft | 301 kts | 266° |
| 2026-04-21 20:31 | 47.71710 | 17.08283 | 11312 ft | 300 kts | 268° |
| 2026-04-21 20:31 | 47.71820 | 17.05226 | 11099 ft | 295 kts | 284° |
| 2026-04-21 20:31 | 47.72478 | 17.02416 | 10897 ft | 290 kts | 298° |
| 2026-04-21 20:31 | 47.73412 | 16.99757 | 10689 ft | 284 kts | 301° |
| 2026-04-21 20:32 | 47.74328 | 16.97247 | 10484 ft | 277 kts | 301° |
| 2026-04-21 20:32 | 47.75248 | 16.94718 | 10273 ft | 276 kts | 301° |
| 2026-04-21 20:32 | 47.76147 | 16.92219 | 10063 ft | 275 kts | 301° |
| 2026-04-21 20:32 | 47.77039 | 16.89719 | 9851 ft | 275 kts | 301° |
| 2026-04-21 20:33 | 47.77929 | 16.87214 | 9612 ft | 274 kts | 301° |
| 2026-04-21 20:33 | 47.78814 | 16.84718 | 9383 ft | 274 kts | 301° |
| 2026-04-21 20:33 | 47.79767 | 16.82246 | 9135 ft | 271 kts | 310° |
| 2026-04-21 20:33 | 47.81154 | 16.80483 | 8895 ft | 266 kts | 334° |
| 2026-04-21 20:34 | 47.82902 | 16.79665 | 8658 ft | 263 kts | 355° |
| 2026-04-21 20:34 | 47.84703 | 16.79881 | 8426 ft | 261 kts | 16° |
| 2026-04-21 20:34 | 47.86369 | 16.80948 | 8206 ft | 261 kts | 26° |
| 2026-04-21 20:34 | 47.87918 | 16.82378 | 8010 ft | 261 kts | 41° |
| 2026-04-21 20:35 | 47.88977 | 16.84574 | 7835 ft | 264 kts | 64° |
| 2026-04-21 20:35 | 47.89378 | 16.87242 | 7655 ft | 269 kts | 86° |
| 2026-04-21 20:35 | 47.89041 | 16.89975 | 7474 ft | 274 kts | 109° |
| 2026-04-21 20:35 | 47.88213 | 16.92527 | 7299 ft | 274 kts | 114° |
| 2026-04-21 20:36 | 47.87339 | 16.95046 | 7121 ft | 273 kts | 114° |
| 2026-04-21 20:36 | 47.86485 | 16.97525 | 6943 ft | 272 kts | 114° |
| 2026-04-21 20:36 | 47.85626 | 17.00051 | 6767 ft | 271 kts | 113° |
| 2026-04-21 20:36 | 47.84860 | 17.02571 | 6575 ft | 267 kts | 102° |
| 2026-04-21 20:37 | 47.84810 | 17.05202 | 6381 ft | 251 kts | 74° |
| 2026-04-21 20:37 | 47.85515 | 17.07459 | 6199 ft | 237 kts | 50° |
| 2026-04-21 20:37 | 47.86739 | 17.09040 | 6015 ft | 227 kts | 29° |
| 2026-04-21 20:37 | 47.88113 | 17.10070 | 5834 ft | 219 kts | 26° |
| 2026-04-21 20:38 | 47.89489 | 17.11027 | 5649 ft | 217 kts | 20° |
| 2026-04-21 20:38 | 47.90955 | 17.11335 | 5453 ft | 214 kts | 357° |
| 2026-04-21 20:38 | 47.92353 | 17.10728 | 5249 ft | 212 kts | 331° |
| 2026-04-21 20:38 | 47.93485 | 17.09321 | 5082 ft | 214 kts | 316° |
| 2026-04-21 20:39 | 47.94374 | 17.07522 | 4904 ft | 218 kts | 306° |
| 2026-04-21 20:39 | 47.95142 | 17.05582 | 4726 ft | 218 kts | 305° |
| 2026-04-21 20:39 | 47.95895 | 17.03598 | 4549 ft | 218 kts | 303° |
| 2026-04-21 20:39 | 47.96609 | 17.01621 | 4379 ft | 218 kts | 302° |
| 2026-04-21 20:40 | 47.97303 | 16.99615 | 4221 ft | 217 kts | 302° |
| 2026-04-21 20:40 | 47.97977 | 16.97601 | 4064 ft | 217 kts | 301° |
| 2026-04-21 20:40 | 47.98637 | 16.95584 | 3904 ft | 217 kts | 301° |
| 2026-04-21 20:40 | 47.99290 | 16.93559 | 3755 ft | 217 kts | 301° |
| 2026-04-21 20:41 | 47.99938 | 16.91533 | 3600 ft | 217 kts | 301° |
| 2026-04-21 20:41 | 48.00587 | 16.89497 | 3458 ft | 216 kts | 301° |
| 2026-04-21 20:41 | 48.01232 | 16.87471 | 3330 ft | 216 kts | 301° |
| 2026-04-21 20:41 | 48.01876 | 16.85453 | 3205 ft | 215 kts | 301° |
| 2026-04-21 20:42 | 48.02520 | 16.83441 | 3079 ft | 213 kts | 301° |
| 2026-04-21 20:42 | 48.03153 | 16.81466 | 2984 ft | 209 kts | 301° |
| 2026-04-21 20:42 | 48.03749 | 16.79601 | 2953 ft | 190 kts | 301° |
| 2026-04-21 20:42 | 48.04291 | 16.77909 | 2924 ft | 170 kts | 302° |
| 2026-04-21 20:43 | 48.04778 | 16.76397 | 2917 ft | 156 kts | 302° |
| 2026-04-21 20:43 | 48.05249 | 16.74952 | 2951 ft | 155 kts | 303° |
| 2026-04-21 20:43 | 48.05724 | 16.73500 | 2926 ft | 156 kts | 303° |
| 2026-04-21 20:43 | 48.06195 | 16.72049 | 2778 ft | 153 kts | 302° |
| 2026-04-21 20:44 | 48.06634 | 16.70686 | 2544 ft | 141 kts | 302° |
| 2026-04-21 20:44 | 48.07056 | 16.69380 | 2343 ft | 138 kts | 303° |
| 2026-04-21 20:44 | 48.07472 | 16.68107 | 2160 ft | 136 kts | 302° |
| 2026-04-21 20:44 | 48.07884 | 16.66838 | 1977 ft | 134 kts | 302° |
| 2026-04-21 20:45 | 48.08288 | 16.65582 | 1795 ft | 133 kts | 301° |
| 2026-04-21 20:45 | 48.08687 | 16.64340 | 1622 ft | 132 kts | 300° |
| 2026-04-21 20:45 | 48.09067 | 16.63096 | 1464 ft | 132 kts | 298° |
| 2026-04-21 20:45 | 48.09455 | 16.61857 | 1299 ft | 131 kts | 301° |
| 2026-04-21 20:46 | 48.09868 | 16.60647 | 1138 ft | 131 kts | 301° |
| 2026-04-21 20:46 | 48.10290 | 16.59438 | 936 ft | 131 kts | 301° |
| 2026-04-21 20:46 | 48.10679 | 16.58222 | 733 ft | 130 kts | 300° |
| 2026-04-21 20:46 | 48.11087 | 16.57021 | 611 ft | 122 kts | 294° |
| 2026-04-21 20:47 | 48.11391 | 16.56067 | 610 ft | 77 kts | 298° |
| 2026-04-21 20:47 | 48.11558 | 16.55556 | 610 ft | 44 kts | 298° |
| 2026-04-21 20:47 | 48.11723 | 16.55252 | 610 ft | 23 kts | 317° |
| 2026-04-21 20:47 | 48.11818 | 16.55148 | 610 ft | 11 kts | 340° |
| 2026-04-21 20:48 | 48.11870 | 16.55148 | 610 ft | 6 kts | 18° |
| 2026-04-21 20:48 | 48.11910 | 16.55172 | 610 ft | 5 kts | 25° |
| 2026-04-21 20:48 | 48.11937 | 16.55211 | 610 ft | 5 kts | 66° |
| 2026-04-21 20:48 | 48.11937 | 16.55264 | 610 ft | 5 kts | 105° |
| 2026-04-21 20:49 | 48.11925 | 16.55316 | 610 ft | 5 kts | 114° |
| 2026-04-21 20:49 | 48.11910 | 16.55365 | 610 ft | 5 kts | 115° |
| 2026-04-21 20:49 | 48.11910 | 16.55417 | 610 ft | 5 kts | 60° |
| 2026-04-21 20:49 | 48.11943 | 16.55455 | 610 ft | 6 kts | 29° |
| 2026-04-21 20:50 | 48.11984 | 16.55489 | 610 ft | 6 kts | 45° |
| 2026-04-21 20:50 | 48.11990 | 16.55535 | 610 ft | 3 kts | 95° |
| 2026-04-21 20:50 | 48.11986 | 16.55570 | 610 ft | 2 kts | 99° |
| 2026-04-21 20:50 | 48.11985 | 16.55579 | 610 ft | 0 kts | 100° |